Time;durP1;ratioP1;P1;durP2;ratioP2;P2;SDS_P1;SDS_P2;PMS_P1;PMS_P2;Temp;Humidity;BMP_temperature;BMP_pressure;BME280_temperature;BME280_humidity;BME280_pressure;Samples;Min_cycle;Max_cycle;Signal;HPM_P1;HPM_P2
2020/12/01 00:01:52;;;;;;;44.20;22.07;;;;;;;;;;729935;187;915159;-73
2020/12/01 00:04:17;;;;;;;38.10;20.50;;;;;;;;;;727617;187;918114;-72
2020/12/01 00:06:43;;;;;;;46.50;22.00;;;;;;;;;;724748;188;920482;-72
2020/12/01 00:09:09;;;;;;;42.37;21.73;;;;;;;;;;727586;187;917077;-72
2020/12/01 00:11:35;;;;;;;35.63;19.60;;;;;;;;;;728353;189;916995;-73
2020/12/01 00:14:01;;;;;;;39.90;19.70;;;;;;;;;;725980;188;919373;-73
2020/12/01 00:16:27;;;;;;;36.00;19.20;;;;;;;;;;723656;189;918340;-73
2020/12/01 00:18:52;;;;;;;35.67;18.40;;;;;;;;;;733998;187;919863;-72
2020/12/01 00:21:18;;;;;;;32.60;18.47;;;;;;;;;;725612;190;918846;-71
2020/12/01 00:23:44;;;;;;;37.97;18.97;;;;;;;;;;728593;190;919089;-73
2020/12/01 00:26:10;;;;;;;38.63;19.50;;;;;;;;;;729255;189;918901;-73
2020/12/01 00:28:36;;;;;;;35.40;19.87;;;;;;;;;;728243;190;919185;-72
2020/12/01 00:31:02;;;;;;;45.40;20.45;;;;;;;;;;726269;187;919377;-72
2020/12/01 00:33:27;;;;;;;41.83;20.67;;;;;;;;;;732314;190;918835;-72
2020/12/01 00:35:53;;;;;;;40.90;19.10;;;;;;;;;;727039;187;905805;-72
2020/12/01 00:38:20;;;;;;;36.33;19.90;;;;;;;;;;725374;187;919550;-73
2020/12/01 00:40:45;;;;;;;39.00;20.90;;;;;;;;;;727827;189;919412;-72
2020/12/01 00:43:11;;;;;;;32.67;18.15;;;;;;;;;;729265;190;1033340;-73
2020/12/01 00:45:37;;;;;;;38.57;19.00;;;;;;;;;;729187;188;918499;-73
2020/12/01 00:48:02;;;;;;;35.33;18.43;;;;;;;;;;726239;188;919073;-72
2020/12/01 00:50:28;;;;;;;31.80;19.77;;;;;;;;;;733066;186;1021084;-72
2020/12/01 00:52:54;;;;;;;36.57;18.90;;;;;;;;;;726633;186;919071;-73
2020/12/01 00:55:20;;;;;;;36.00;19.17;;;;;;;;;;728860;189;918802;-72
2020/12/01 00:57:46;;;;;;;34.10;16.57;;;;;;;;;;729894;189;1043270;-72
2020/12/01 01:00:12;;;;;;;39.30;22.17;;;;;;;;;;730406;190;919841;-72
2020/12/01 01:02:38;;;;;;;36.50;17.63;;;;;;;;;;727355;188;919222;-72
2020/12/01 01:05:04;;;;;;;31.97;17.50;;;;;;;;;;738420;188;919490;-72
2020/12/01 01:07:30;;;;;;;33.60;19.23;;;;;;;;;;731771;186;919361;-72
2020/12/01 01:09:56;;;;;;;42.87;20.93;;;;;;;;;;735102;186;918429;-72
2020/12/01 01:12:21;;;;;;;33.00;18.48;;;;;;;;;;733669;188;918928;-72
2020/12/01 01:14:47;;;;;;;31.53;17.77;;;;;;;;;;735508;188;919923;-70
2020/12/01 01:17:13;;;;;;;34.33;16.87;;;;;;;;;;735551;188;919809;-72
2020/12/01 01:19:39;;;;;;;36.40;19.10;;;;;;;;;;727839;187;1283117;-71
2020/12/01 01:22:05;;;;;;;33.30;17.17;;;;;;;;;;741357;188;919560;-73
2020/12/01 01:24:31;;;;;;;33.07;18.03;;;;;;;;;;731934;187;919040;-72
2020/12/01 01:26:57;;;;;;;29.67;18.77;;;;;;;;;;733567;188;988041;-71
2020/12/01 01:29:23;;;;;;;35.27;17.33;;;;;;;;;;737818;188;921371;-72
2020/12/01 01:31:49;;;;;;;41.58;20.62;;;;;;;;;;735225;188;920850;-72
2020/12/01 01:34:14;;;;;;;37.03;21.43;;;;;;;;;;731640;188;925496;-73
2020/12/01 01:36:40;;;;;;;34.30;18.27;;;;;;;;;;738633;186;914915;-73
2020/12/01 01:39:06;;;;;;;35.77;19.57;;;;;;;;;;731848;185;915963;-73
2020/12/01 01:41:32;;;;;;;38.67;18.93;;;;;;;;;;734254;188;1017472;-71
2020/12/01 01:43:58;;;;;;;41.53;20.20;;;;;;;;;;730607;186;918566;-71
2020/12/01 01:46:29;;;;;;;36.27;19.90;;;;;;;;;;739011;188;919160;-72
2020/12/01 01:48:55;;;;;;;37.37;19.60;;;;;;;;;;733940;188;919010;-72
2020/12/01 01:51:21;;;;;;;42.40;19.42;;;;;;;;;;735044;186;919723;-72
2020/12/01 01:53:47;;;;;;;39.97;21.17;;;;;;;;;;739377;188;919248;-73
2020/12/01 01:56:13;;;;;;;41.97;19.20;;;;;;;;;;733991;187;919380;-72
2020/12/01 01:58:39;;;;;;;30.57;18.23;;;;;;;;;;737218;188;1021625;-72
2020/12/01 02:01:06;;;;;;;33.83;17.25;;;;;;;;;;732450;184;1288822;-70
2020/12/01 02:03:37;;;;;;;36.30;18.40;;;;;;;;;;741074;186;921471;-71
2020/12/01 02:06:03;;;;;;;41.80;19.23;;;;;;;;;;732039;187;918490;-72
2020/12/01 02:08:29;;;;;;;37.92;19.30;;;;;;;;;;738595;185;919230;-71
2020/12/01 02:10:55;;;;;;;36.37;19.07;;;;;;;;;;737801;188;918287;-72
2020/12/01 02:13:21;;;;;;;31.07;18.40;;;;;;;;;;736031;188;920067;-72
2020/12/01 02:15:47;;;;;;;33.05;16.52;;;;;;;;;;730977;185;918150;-72
2020/12/01 02:18:12;;;;;;;35.63;18.47;;;;;;;;;;739989;188;919624;-72
2020/12/01 02:20:38;;;;;;;32.13;17.80;;;;;;;;;;715006;186;5345066;-72
2020/12/01 02:23:04;;;;;;;33.80;16.92;;;;;;;;;;736466;187;919291;-72
2020/12/01 02:25:30;;;;;;;37.63;18.70;;;;;;;;;;732559;188;918935;-72
2020/12/01 02:27:56;;;;;;;46.92;22.55;;;;;;;;;;739216;188;918709;-71
2020/12/01 02:30:22;;;;;;;39.43;20.00;;;;;;;;;;734097;188;919468;-70
2020/12/01 02:32:47;;;;;;;41.35;20.40;;;;;;;;;;730057;188;1021961;-70
2020/12/01 02:35:13;;;;;;;37.90;19.70;;;;;;;;;;740447;187;926366;-71
2020/12/01 02:37:40;;;;;;;40.77;19.70;;;;;;;;;;732562;187;919275;-72
2020/12/01 02:40:05;;;;;;;42.47;21.10;;;;;;;;;;736765;188;922586;-71
2020/12/01 02:42:31;;;;;;;32.90;17.87;;;;;;;;;;737929;187;920777;-71
2020/12/01 02:44:57;;;;;;;37.07;20.73;;;;;;;;;;737278;186;915338;-72
2020/12/01 02:47:23;;;;;;;30.33;19.12;;;;;;;;;;734004;185;1065689;-71
2020/12/01 02:49:48;;;;;;;35.15;18.08;;;;;;;;;;739875;188;919662;-73
2020/12/01 02:52:14;;;;;;;37.40;18.80;;;;;;;;;;732622;185;920181;-71
2020/12/01 02:54:40;;;;;;;34.43;17.70;;;;;;;;;;732872;187;919083;-71
2020/12/01 02:57:06;;;;;;;38.23;18.77;;;;;;;;;;730837;185;1120823;-71
2020/12/01 02:59:32;;;;;;;34.87;18.57;;;;;;;;;;744180;188;623371;-72
2020/12/01 03:01:58;;;;;;;39.60;22.07;;;;;;;;;;738357;186;624841;-72
2020/12/01 03:07:03;;;;;;;36.13;19.57;;;;;;;;;;737589;187;918882;-73
2020/12/01 03:09:29;;;;;;;37.10;21.63;;;;;;;;;;722684;191;919426;-73
2020/12/01 03:11:55;;;;;;;41.00;21.87;;;;;;;;;;712516;192;1020897;-71
2020/12/01 03:14:22;;;;;;;44.17;22.60;;;;;;;;;;733757;187;918974;-72
2020/12/01 03:16:47;;;;;;;39.47;19.00;;;;;;;;;;740942;188;919236;-72
2020/12/01 03:19:12;;;;;;;38.73;20.67;;;;;;;;;;734242;188;919123;-73
2020/12/01 03:21:38;;;;;;;40.93;19.20;;;;;;;;;;737369;187;918872;-72
2020/12/01 03:24:04;;;;;;;35.28;18.95;;;;;;;;;;736182;188;1021284;-73
2020/12/01 03:26:30;;;;;;;40.10;19.60;;;;;;;;;;736154;188;943279;-73
2020/12/01 03:28:56;;;;;;;37.30;18.57;;;;;;;;;;733239;185;920564;-72
2020/12/01 03:31:22;;;;;;;38.10;19.30;;;;;;;;;;736992;188;922117;-73
2020/12/01 03:33:47;;;;;;;40.60;20.57;;;;;;;;;;734502;188;919076;-73
2020/12/01 03:36:13;;;;;;;36.58;18.75;;;;;;;;;;734888;185;918774;-72
2020/12/01 03:38:39;;;;;;;34.07;19.80;;;;;;;;;;729953;186;918737;-72
2020/12/01 03:41:05;;;;;;;36.57;19.90;;;;;;;;;;739563;185;919180;-72
2020/12/01 03:43:31;;;;;;;34.93;18.40;;;;;;;;;;733374;188;916052;-72
2020/12/01 03:45:57;;;;;;;41.30;19.23;;;;;;;;;;734680;188;916572;-73
2020/12/01 03:48:22;;;;;;;31.70;18.60;;;;;;;;;;741462;188;919266;-73
2020/12/01 03:50:48;;;;;;;65.30;19.50;;;;;;;;;;729943;188;1198954;-73
2020/12/01 03:53:14;;;;;;;36.30;17.90;;;;;;;;;;734651;188;918992;-72
2020/12/01 03:55:40;;;;;;;42.27;20.23;;;;;;;;;;737415;188;918655;-73
2020/12/01 03:58:06;;;;;;;36.77;19.90;;;;;;;;;;734437;187;920307;-73
2020/12/01 04:00:32;;;;;;;40.67;17.75;;;;;;;;;;732007;188;919431;-72
2020/12/01 04:02:57;;;;;;;32.37;18.10;;;;;;;;;;736157;188;919151;-71
2020/12/01 04:05:23;;;;;;;37.92;18.77;;;;;;;;;;736137;186;920566;-72
2020/12/01 04:07:51;;;;;;;33.67;19.33;;;;;;;;;;733063;187;918092;-73
2020/12/01 04:10:15;;;;;;;35.38;19.85;;;;;;;;;;707474;186;5800268;-71
2020/12/01 04:12:41;;;;;;;33.90;19.50;;;;;;;;;;739978;185;919258;-71
2020/12/01 04:15:07;;;;;;;38.50;19.57;;;;;;;;;;732587;186;1008232;-72
2020/12/01 04:17:33;;;;;;;33.13;19.33;;;;;;;;;;736143;186;918706;-72
2020/12/01 04:19:59;;;;;;;35.27;16.77;;;;;;;;;;739661;186;919309;-72
2020/12/01 04:22:25;;;;;;;36.30;19.65;;;;;;;;;;738035;187;919554;-73
2020/12/01 04:24:52;;;;;;;36.93;18.97;;;;;;;;;;735554;187;927194;-72
2020/12/01 04:27:18;;;;;;;38.50;18.83;;;;;;;;;;738674;187;918833;-73
2020/12/01 04:29:44;;;;;;;34.47;18.40;;;;;;;;;;736148;187;919011;-72
2020/12/01 04:32:09;;;;;;;41.13;18.07;;;;;;;;;;735172;185;916896;-72
2020/12/01 04:34:35;;;;;;;34.05;17.25;;;;;;;;;;735358;188;918653;-72
2020/12/01 04:37:02;;;;;;;35.77;19.00;;;;;;;;;;739471;186;918995;-72
2020/12/01 04:39:28;;;;;;;34.30;17.87;;;;;;;;;;734754;188;921321;-72
2020/12/01 04:41:53;;;;;;;32.83;20.00;;;;;;;;;;732405;188;919415;-71
2020/12/01 04:44:25;;;;;;;38.63;19.90;;;;;;;;;;739865;186;920894;-70
2020/12/01 04:46:51;;;;;;;36.03;20.90;;;;;;;;;;730820;188;918640;-71
2020/12/01 04:49:19;;;;;;;38.47;21.03;;;;;;;;;;736966;186;920903;-73
2020/12/01 04:51:51;;;;;;;38.90;19.13;;;;;;;;;;734425;186;917747;-72
2020/12/01 04:54:34;;;;;;;37.73;20.50;;;;;;;;;;743366;188;918650;-72
2020/12/01 04:57:06;;;;;;;39.70;20.17;;;;;;;;;;730419;187;1297983;-72
2020/12/01 04:59:47;;;;;;;40.73;23.73;;;;;;;;;;739846;185;919749;-72
2020/12/01 05:02:19;;;;;;;38.60;20.63;;;;;;;;;;734848;185;918196;-73
2020/12/01 05:04:48;;;;;;;43.83;23.43;;;;;;;;;;737868;185;914662;-72
2020/12/01 05:07:20;;;;;;;51.30;25.92;;;;;;;;;;735718;185;911868;-73
2020/12/01 05:09:44;;;;;;;56.23;30.70;;;;;;;;;;744303;188;919292;-73
2020/12/01 05:12:10;;;;;;;53.03;24.50;;;;;;;;;;733666;186;919175;-73
2020/12/01 05:14:36;;;;;;;37.23;22.40;;;;;;;;;;738570;185;917612;-73
2020/12/01 05:17:02;;;;;;;44.83;23.67;;;;;;;;;;721103;188;3763954;-74
2020/12/01 05:19:38;;;;;;;40.00;20.00;;;;;;;;;;738349;186;918646;-73
2020/12/01 05:22:06;;;;;;;35.47;19.57;;;;;;;;;;733878;188;919184;-72
2020/12/01 05:24:36;;;;;;;40.27;22.40;;;;;;;;;;729285;188;920817;-73
2020/12/01 05:27:02;;;;;;;37.20;21.20;;;;;;;;;;737554;188;918865;-72
2020/12/01 05:29:28;;;;;;;39.92;20.00;;;;;;;;;;736163;186;919497;-74
2020/12/01 05:31:54;;;;;;;43.00;21.20;;;;;;;;;;734171;185;917836;-73
2020/12/01 05:34:20;;;;;;;42.40;21.20;;;;;;;;;;736366;187;917925;-73
2020/12/01 05:36:45;;;;;;;46.53;23.03;;;;;;;;;;736100;188;918807;-73
2020/12/01 05:39:14;;;;;;;41.93;23.80;;;;;;;;;;725068;185;2199393;-71
2020/12/01 05:41:40;;;;;;;45.20;22.50;;;;;;;;;;736648;187;918833;-72
2020/12/01 05:44:06;;;;;;;49.80;25.10;;;;;;;;;;730389;186;918036;-72
2020/12/01 05:46:33;;;;;;;50.20;22.70;;;;;;;;;;743941;188;918308;-72
2020/12/01 05:48:59;;;;;;;48.07;25.67;;;;;;;;;;735789;188;918636;-72
2020/12/01 05:51:25;;;;;;;95.40;47.80;;;;;;;;;;738113;188;919406;-72
2020/12/01 05:53:54;;;;;;;79.43;37.47;;;;;;;;;;740060;186;919066;-71
2020/12/01 05:56:20;;;;;;;44.73;22.33;;;;;;;;;;741291;186;919389;-72
2020/12/01 05:58:46;;;;;;;44.35;21.77;;;;;;;;;;734799;185;1580796;-72
2020/12/01 06:01:12;;;;;;;50.58;28.23;;;;;;;;;;740965;186;924709;-71
2020/12/01 06:03:55;;;;;;;69.23;32.90;;;;;;;;;;731480;191;918877;-73
2020/12/01 06:06:21;;;;;;;126.85;60.40;;;;;;;;;;737655;188;918327;-73
2020/12/01 06:09:03;;;;;;;91.03;42.53;;;;;;;;;;729050;188;918857;-73
2020/12/01 06:11:30;;;;;;;53.43;27.53;;;;;;;;;;740002;188;919343;-73
2020/12/01 06:13:57;;;;;;;48.47;26.90;;;;;;;;;;728576;188;919333;-73
2020/12/01 06:16:25;;;;;;;57.70;27.40;;;;;;;;;;733044;188;918798;-73
2020/12/01 06:18:52;;;;;;;51.05;26.92;;;;;;;;;;736236;188;920657;-73
2020/12/01 06:21:25;;;;;;;59.40;25.87;;;;;;;;;;731671;185;919263;-73
2020/12/01 06:23:54;;;;;;;42.27;23.37;;;;;;;;;;737169;188;942197;-73
2020/12/01 06:26:24;;;;;;;44.50;22.80;;;;;;;;;;723514;186;1749327;-73
2020/12/01 06:28:52;;;;;;;38.90;22.37;;;;;;;;;;740901;187;918784;-73
2020/12/01 06:31:22;;;;;;;41.87;23.30;;;;;;;;;;732114;185;919644;-73
2020/12/01 06:33:52;;;;;;;37.97;21.15;;;;;;;;;;729850;188;919286;-72
2020/12/01 06:36:37;;;;;;;42.07;23.77;;;;;;;;;;733733;188;918748;-73
2020/12/01 06:39:08;;;;;;;46.17;23.20;;;;;;;;;;731896;188;919350;-73
2020/12/01 06:41:34;;;;;;;46.10;23.47;;;;;;;;;;734094;186;918470;-73
2020/12/01 06:44:00;;;;;;;49.40;23.77;;;;;;;;;;732006;188;1048827;-72
2020/12/01 06:46:32;;;;;;;45.60;23.90;;;;;;;;;;731912;188;917989;-71
2020/12/01 06:48:57;;;;;;;46.67;23.50;;;;;;;;;;737656;188;918786;-73
2020/12/01 06:51:23;;;;;;;48.13;24.23;;;;;;;;;;737015;185;919697;-72
2020/12/01 06:53:49;;;;;;;48.47;24.03;;;;;;;;;;738886;185;918918;-72
2020/12/01 06:56:16;;;;;;;45.30;26.60;;;;;;;;;;739409;188;919121;-72
2020/12/01 06:58:42;;;;;;;48.90;24.63;;;;;;;;;;735967;186;919418;-73
2020/12/01 07:01:07;;;;;;;50.97;25.67;;;;;;;;;;736649;188;923153;-74
2020/12/01 07:03:33;;;;;;;44.53;24.33;;;;;;;;;;736431;188;916905;-74
2020/12/01 07:06:06;;;;;;;49.50;25.20;;;;;;;;;;740876;188;919923;-72
2020/12/01 07:08:32;;;;;;;42.27;24.50;;;;;;;;;;734998;187;919783;-72
2020/12/01 07:11:15;;;;;;;52.95;29.87;;;;;;;;;;734766;188;917037;-73
2020/12/01 07:13:41;;;;;;;50.63;29.12;;;;;;;;;;735308;186;915924;-72
2020/12/01 07:16:08;;;;;;;51.37;26.45;;;;;;;;;;738477;185;916216;-69
2020/12/01 07:18:34;;;;;;;56.23;29.07;;;;;;;;;;741092;185;926933;-73
2020/12/01 07:21:04;;;;;;;60.08;31.33;;;;;;;;;;734181;188;919958;-72
2020/12/01 07:23:31;;;;;;;57.60;31.13;;;;;;;;;;731830;187;919043;-72
2020/12/01 07:26:00;;;;;;;57.20;31.60;;;;;;;;;;739596;188;919096;-72
2020/12/01 07:28:28;;;;;;;64.00;31.77;;;;;;;;;;727199;186;966775;-72
2020/12/01 07:30:56;;;;;;;68.23;36.33;;;;;;;;;;739080;188;928700;-71
2020/12/01 07:33:22;;;;;;;62.55;31.12;;;;;;;;;;734493;185;918909;-71
2020/12/01 07:35:48;;;;;;;67.33;30.23;;;;;;;;;;745822;188;862494;-71
2020/12/01 07:38:20;;;;;;;61.83;30.90;;;;;;;;;;731645;188;995482;-71
2020/12/01 07:40:46;;;;;;;70.77;29.87;;;;;;;;;;734891;188;919161;-71
2020/12/01 07:43:12;;;;;;;80.63;31.40;;;;;;;;;;732863;185;943691;-69
2020/12/01 07:45:39;;;;;;;83.87;33.87;;;;;;;;;;739111;188;918788;-70
2020/12/01 07:48:05;;;;;;;70.63;31.60;;;;;;;;;;720001;185;3220104;-70
2020/12/01 07:50:30;;;;;;;84.87;33.50;;;;;;;;;;735585;186;918174;-70
2020/12/01 07:52:57;;;;;;;73.77;30.73;;;;;;;;;;739480;188;920204;-73
2020/12/01 07:55:24;;;;;;;61.63;28.60;;;;;;;;;;738042;188;918264;-72
2020/12/01 07:57:56;;;;;;;67.33;29.00;;;;;;;;;;736997;188;919327;-72
2020/12/01 08:00:22;;;;;;;56.60;27.13;;;;;;;;;;732763;188;918545;-73
2020/12/01 08:02:48;;;;;;;51.33;27.87;;;;;;;;;;741183;186;918725;-72
2020/12/01 08:05:14;;;;;;;65.60;29.03;;;;;;;;;;736407;185;919080;-72
2020/12/01 08:07:40;;;;;;;62.37;30.17;;;;;;;;;;736623;188;919543;-70
2020/12/01 08:10:08;;;;;;;58.13;27.97;;;;;;;;;;744291;187;919682;-71
2020/12/01 08:12:34;;;;;;;59.47;27.48;;;;;;;;;;740573;188;919425;-70
2020/12/01 08:15:00;;;;;;;68.13;30.00;;;;;;;;;;737563;187;918646;-69
2020/12/01 08:17:27;;;;;;;46.80;25.97;;;;;;;;;;743773;186;984982;-68
2020/12/01 08:19:54;;;;;;;70.03;30.00;;;;;;;;;;736672;186;915836;-67
2020/12/01 08:22:19;;;;;;;64.75;29.02;;;;;;;;;;736514;188;1010488;-66
2020/12/01 08:24:45;;;;;;;51.47;24.23;;;;;;;;;;728255;188;931220;-66
2020/12/01 08:27:15;;;;;;;54.90;28.17;;;;;;;;;;747279;185;920028;-66
2020/12/01 08:29:41;;;;;;;58.57;26.57;;;;;;;;;;728126;188;918766;-66
2020/12/01 08:32:10;;;;;;;47.40;23.73;;;;;;;;;;731622;188;919128;-66
2020/12/01 08:34:40;;;;;;;52.13;24.87;;;;;;;;;;733863;188;920186;-68
2020/12/01 08:37:14;;;;;;;56.67;25.10;;;;;;;;;;728221;188;1004467;-66
2020/12/01 08:39:41;;;;;;;40.12;20.12;;;;;;;;;;738190;188;919768;-66
2020/12/01 08:42:07;;;;;;;46.03;22.53;;;;;;;;;;732865;186;919324;-66
2020/12/01 08:44:48;;;;;;;44.37;21.07;;;;;;;;;;740081;188;919660;-65
2020/12/01 08:47:14;;;;;;;42.00;20.92;;;;;;;;;;736472;188;918575;-66
2020/12/01 08:49:41;;;;;;;41.50;21.30;;;;;;;;;;735072;188;918964;-65
2020/12/01 08:52:07;;;;;;;41.73;19.13;;;;;;;;;;728758;188;987078;-65
2020/12/01 08:54:32;;;;;;;35.77;19.60;;;;;;;;;;729765;188;919521;-64
2020/12/01 08:57:02;;;;;;;34.40;17.87;;;;;;;;;;724776;187;2350589;-65
2020/12/01 08:59:37;;;;;;;28.37;14.10;;;;;;;;;;729492;188;918893;-64
2020/12/01 09:02:03;;;;;;;34.03;17.07;;;;;;;;;;726826;188;919661;-65
2020/12/01 09:04:29;;;;;;;21.93;11.10;;;;;;;;;;741279;184;919562;-66
2020/12/01 09:06:57;;;;;;;33.00;16.30;;;;;;;;;;732255;186;918620;-67
2020/12/01 09:09:26;;;;;;;35.10;18.15;;;;;;;;;;731367;188;919548;-66
2020/12/01 09:12:12;;;;;;;37.70;18.90;;;;;;;;;;729897;188;918612;-66
2020/12/01 09:14:43;;;;;;;31.60;16.53;;;;;;;;;;735624;186;918745;-65
2020/12/01 09:17:11;;;;;;;35.63;15.17;;;;;;;;;;737901;188;919217;-66
2020/12/01 09:22:21;;;;;;;29.20;15.17;;;;;;;;;;737842;186;916459;-66
2020/12/01 09:24:47;;;;;;;20.17;10.30;;;;;;;;;;734009;188;919351;-66
2020/12/01 09:27:12;;;;;;;24.30;13.77;;;;;;;;;;728887;186;922237;-67
2020/12/01 09:29:38;;;;;;;28.87;16.03;;;;;;;;;;744050;188;1021519;-67
2020/12/01 09:32:05;;;;;;;29.07;15.70;;;;;;;;;;734364;187;919030;-66
2020/12/01 09:34:31;;;;;;;30.90;15.90;;;;;;;;;;737804;188;918842;-66
2020/12/01 09:36:58;;;;;;;26.77;14.23;;;;;;;;;;740984;188;918782;-68
2020/12/01 09:39:24;;;;;;;26.33;16.20;;;;;;;;;;742035;188;919109;-66
2020/12/01 09:42:00;;;;;;;31.60;15.70;;;;;;;;;;729184;188;919981;-66
2020/12/01 09:44:44;;;;;;;34.83;17.83;;;;;;;;;;725043;188;919114;-66
2020/12/01 09:46:55;;;;;;;35.10;17.70;;;;;;;;;;741313;188;919282;-66
2020/12/01 09:49:14;;;;;;;35.77;16.97;;;;;;;;;;734118;188;919091;-65
2020/12/01 09:51:46;;;;;;;32.30;17.77;;;;;;;;;;731509;188;919571;-66
2020/12/01 09:54:19;;;;;;;31.17;15.10;;;;;;;;;;737652;185;1021309;-66
2020/12/01 09:56:43;;;;;;;34.63;15.80;;;;;;;;;;735635;185;918546;-65
2020/12/01 10:09:24;;;;;;;28.67;16.23;;;;;;;;;;731359;188;918214;-65
2020/12/01 10:12:11;;;;;;;30.33;17.17;;;;;;;;;;731975;188;920272;-65
2020/12/01 10:17:37;;;;;;;33.00;18.40;;;;;;;;;;735267;184;916514;-64
2020/12/01 10:27:37;;;;;;;29.13;13.70;;;;;;;;;;733461;187;919698;-63
2020/12/01 10:31:03;;;;;;;25.57;14.90;;;;;;;;;;733587;186;918943;-63
2020/12/01 10:34:47;;;;;;;32.50;18.17;;;;;;;;;;742044;188;920052;-63
2020/12/01 10:37:08;;;;;;;32.80;17.40;;;;;;;;;;731442;186;920359;-63
2020/12/01 10:39:34;;;;;;;31.47;16.97;;;;;;;;;;733227;188;919856;-63
2020/12/01 10:42:00;;;;;;;27.47;16.27;;;;;;;;;;732644;188;919416;-63
2020/12/01 10:44:26;;;;;;;26.43;14.03;;;;;;;;;;736458;188;920175;-63
2020/12/01 10:46:52;;;;;;;28.50;15.77;;;;;;;;;;731973;188;918175;-63
2020/12/01 10:49:18;;;;;;;30.67;16.77;;;;;;;;;;739246;188;919117;-63
2020/12/01 10:51:46;;;;;;;29.07;16.20;;;;;;;;;;739416;188;919975;-64
2020/12/01 10:54:12;;;;;;;29.13;15.20;;;;;;;;;;736433;188;920025;-63
2020/12/01 10:56:38;;;;;;;23.77;13.93;;;;;;;;;;733471;188;915556;-63
2020/12/01 10:59:04;;;;;;;25.03;13.80;;;;;;;;;;743468;188;921393;-63
2020/12/01 11:01:33;;;;;;;28.00;15.03;;;;;;;;;;735683;188;983900;-62
2020/12/01 11:03:59;;;;;;;34.00;17.13;;;;;;;;;;738827;188;920063;-63
2020/12/01 11:06:24;;;;;;;27.97;14.17;;;;;;;;;;736597;185;921819;-62
2020/12/01 11:08:50;;;;;;;35.40;17.80;;;;;;;;;;743448;186;916128;-61
2020/12/01 11:11:17;;;;;;;28.57;16.57;;;;;;;;;;726793;188;918956;-62
2020/12/01 11:13:43;;;;;;;25.30;14.60;;;;;;;;;;736559;188;921816;-63
2020/12/01 11:16:09;;;;;;;28.43;15.20;;;;;;;;;;739116;188;916441;-63
2020/12/01 11:18:34;;;;;;;33.70;15.53;;;;;;;;;;738895;188;916164;-62
2020/12/01 11:21:01;;;;;;;25.63;16.83;;;;;;;;;;732344;188;1124012;-63
2020/12/01 11:23:26;;;;;;;29.50;15.20;;;;;;;;;;737544;188;919946;-64
2020/12/01 11:25:52;;;;;;;24.77;13.97;;;;;;;;;;731877;188;953402;-62
2020/12/01 11:28:18;;;;;;;28.03;14.97;;;;;;;;;;713662;185;4057469;-62
2020/12/01 11:30:44;;;;;;;25.63;14.50;;;;;;;;;;731133;188;921929;-63
2020/12/01 11:33:10;;;;;;;30.83;15.47;;;;;;;;;;743876;185;918396;-62
2020/12/01 11:35:36;;;;;;;23.00;13.27;;;;;;;;;;731838;188;918907;-62
2020/12/01 11:38:02;;;;;;;24.13;14.57;;;;;;;;;;733231;186;921638;-62
2020/12/01 11:40:27;;;;;;;28.97;14.13;;;;;;;;;;743626;188;920668;-62
2020/12/01 11:42:53;;;;;;;27.23;14.87;;;;;;;;;;730761;188;923448;-62
2020/12/01 11:45:19;;;;;;;28.17;15.57;;;;;;;;;;741384;186;917233;-62
2020/12/01 11:47:45;;;;;;;23.97;13.67;;;;;;;;;;729808;188;2482540;-63
2020/12/01 11:50:11;;;;;;;24.80;14.00;;;;;;;;;;735072;185;959421;-63
2020/12/01 11:52:37;;;;;;;24.40;12.20;;;;;;;;;;729044;188;917861;-63
2020/12/01 11:55:02;;;;;;;22.70;13.13;;;;;;;;;;744470;186;909953;-62
2020/12/01 11:57:29;;;;;;;25.97;15.33;;;;;;;;;;733411;188;1116073;-63
2020/12/01 11:59:55;;;;;;;25.90;13.70;;;;;;;;;;733033;185;915824;-62
2020/12/01 12:02:21;;;;;;;24.27;13.40;;;;;;;;;;730295;188;1020548;-63
2020/12/01 12:04:46;;;;;;;24.23;14.63;;;;;;;;;;733891;188;919200;-63
2020/12/01 12:07:12;;;;;;;26.92;13.98;;;;;;;;;;741579;188;920189;-62
2020/12/01 12:09:38;;;;;;;23.77;13.17;;;;;;;;;;735743;186;919837;-62
2020/12/01 12:12:04;;;;;;;27.03;13.97;;;;;;;;;;741558;188;1134099;-62
2020/12/01 12:14:30;;;;;;;21.33;13.13;;;;;;;;;;734585;188;968405;-62
2020/12/01 12:16:56;;;;;;;28.57;15.80;;;;;;;;;;731790;188;920473;-63
2020/12/01 12:19:21;;;;;;;22.80;13.30;;;;;;;;;;740719;185;898825;-62
2020/12/01 12:21:47;;;;;;;27.60;13.87;;;;;;;;;;731776;188;919460;-63
2020/12/01 12:24:13;;;;;;;26.83;14.25;;;;;;;;;;731427;185;919126;-63
2020/12/01 12:26:40;;;;;;;24.48;14.30;;;;;;;;;;743976;186;1022315;-63
2020/12/01 12:29:06;;;;;;;24.50;14.50;;;;;;;;;;739922;188;918832;-62
2020/12/01 12:31:31;;;;;;;28.60;13.27;;;;;;;;;;729974;188;919693;-62
2020/12/01 12:33:57;;;;;;;26.30;14.40;;;;;;;;;;730129;185;1067892;-65
2020/12/01 12:36:23;;;;;;;25.70;13.30;;;;;;;;;;743885;188;923167;-63
2020/12/01 12:38:49;;;;;;;25.13;13.70;;;;;;;;;;740815;186;921179;-63
2020/12/01 12:41:15;;;;;;;26.27;13.00;;;;;;;;;;728093;188;1021038;-62
2020/12/01 12:43:41;;;;;;;27.20;14.67;;;;;;;;;;740691;185;1021226;-64
2020/12/01 12:46:07;;;;;;;26.47;13.90;;;;;;;;;;734509;188;920460;-64
2020/12/01 12:48:32;;;;;;;22.73;13.87;;;;;;;;;;734563;188;921025;-63
2020/12/01 12:50:59;;;;;;;25.93;13.83;;;;;;;;;;741263;186;916217;-63
2020/12/01 12:53:24;;;;;;;23.40;12.40;;;;;;;;;;737214;188;919516;-63
2020/12/01 12:55:50;;;;;;;27.60;13.87;;;;;;;;;;730788;185;1129035;-64
2020/12/01 12:58:16;;;;;;;25.73;14.23;;;;;;;;;;734043;188;1021228;-64
2020/12/01 13:00:42;;;;;;;23.40;12.43;;;;;;;;;;736306;188;906695;-63
2020/12/01 13:03:08;;;;;;;23.00;13.10;;;;;;;;;;736007;188;919986;-64
2020/12/01 13:05:33;;;;;;;23.13;12.73;;;;;;;;;;731096;188;921734;-63
2020/12/01 13:07:59;;;;;;;25.17;13.57;;;;;;;;;;742625;187;878978;-64
2020/12/01 13:10:25;;;;;;;22.83;13.17;;;;;;;;;;732556;188;941759;-63
2020/12/01 13:12:51;;;;;;;19.43;11.70;;;;;;;;;;734918;188;919299;-65
2020/12/01 13:15:17;;;;;;;23.00;12.63;;;;;;;;;;740422;188;919007;-63
2020/12/01 13:17:44;;;;;;;26.40;13.27;;;;;;;;;;728377;185;1710615;-64
2020/12/01 13:20:08;;;;;;;31.23;14.50;;;;;;;;;;734496;185;936921;-63
2020/12/01 13:22:34;;;;;;;25.67;12.87;;;;;;;;;;736856;185;918048;-63
2020/12/01 13:25:00;;;;;;;22.30;12.27;;;;;;;;;;734472;188;918108;-65
2020/12/01 13:27:26;;;;;;;28.03;14.53;;;;;;;;;;730453;185;917422;-63
2020/12/01 13:29:52;;;;;;;28.30;12.90;;;;;;;;;;733574;185;918259;-64
2020/12/01 13:32:18;;;;;;;24.53;11.77;;;;;;;;;;735324;188;920257;-64
2020/12/01 13:34:44;;;;;;;20.57;12.50;;;;;;;;;;734106;188;920291;-64
2020/12/01 13:37:09;;;;;;;23.45;13.15;;;;;;;;;;730540;187;1418857;-62
2020/12/01 13:39:35;;;;;;;24.93;13.20;;;;;;;;;;739228;188;918935;-63
2020/12/01 13:42:01;;;;;;;24.90;12.70;;;;;;;;;;733541;186;931262;-64
2020/12/01 13:44:27;;;;;;;25.30;12.50;;;;;;;;;;735672;186;923080;-64
2020/12/01 13:46:53;;;;;;;21.50;12.60;;;;;;;;;;737980;186;918623;-65
2020/12/01 13:49:19;;;;;;;29.13;13.73;;;;;;;;;;736520;188;918058;-64
2020/12/01 13:51:45;;;;;;;23.87;14.73;;;;;;;;;;736684;187;921940;-65
2020/12/01 13:54:11;;;;;;;25.90;14.80;;;;;;;;;;738712;188;919038;-66
2020/12/01 13:56:37;;;;;;;27.83;14.00;;;;;;;;;;734381;186;933898;-63
2020/12/01 13:59:03;;;;;;;26.83;12.93;;;;;;;;;;736080;184;920009;-65
2020/12/01 14:01:29;;;;;;;27.33;13.75;;;;;;;;;;736127;186;916139;-65
2020/12/01 14:03:54;;;;;;;24.00;13.03;;;;;;;;;;739793;187;912435;-64
2020/12/01 14:06:20;;;;;;;28.83;14.23;;;;;;;;;;736485;186;912821;-65
2020/12/01 14:08:46;;;;;;;27.77;13.20;;;;;;;;;;736064;188;912469;-64
2020/12/01 14:11:12;;;;;;;26.20;13.37;;;;;;;;;;739550;188;919710;-65
2020/12/01 14:13:38;;;;;;;27.73;13.23;;;;;;;;;;734198;188;918659;-65
2020/12/01 14:16:04;;;;;;;29.50;14.23;;;;;;;;;;736051;186;939052;-64
2020/12/01 14:18:32;;;;;;;22.50;13.00;;;;;;;;;;736632;188;920256;-64
2020/12/01 14:20:55;;;;;;;28.77;14.43;;;;;;;;;;736867;188;920122;-64
2020/12/01 14:23:21;;;;;;;25.02;12.70;;;;;;;;;;726281;187;1728906;-65
2020/12/01 14:25:47;;;;;;;24.40;14.00;;;;;;;;;;739127;188;943071;-65
2020/12/01 14:28:13;;;;;;;21.90;13.07;;;;;;;;;;735095;186;912469;-64
2020/12/01 14:30:39;;;;;;;24.43;12.47;;;;;;;;;;733978;188;915838;-64